OIBK

Kish International Airport

Kish Island, Iran
METAR OIBK 201900Z 32004KT 7000 NSC 28/22 Q1013
Observed Flight Rules
Oct-20 @ 19:00 UTC (20 minutes ago) Marginal Visual Flight Rules
Wind Visibility Clouds
320° at 4 knots 7,001 meters
  • Clear skies
Temperatures Readings
Current 28°C / 82°F
Dewpoint 22°C / 72°F
Humidity 70%
Altimeter 29.91" Hg
Pressure 1013 hPa
Elevation 30
METAR OIBK 201900Z 32004KT 7000 NSC 28/22 Q1013
Observed Flight Rules
Oct-20 @ 19:00 UTC
(20 minutes ago)
MVFR
Wind Visibility
320° at 4 knots 7,001 meters
Clouds
  • Clear skies
Temperature Dewpoint
28°C / 82°F 22°C / 72°F
Humidity Altimeter Pressure
70% 29.91" Hg 1013 hPa